createdAt,value
2019-05-10T00:00:51.771Z,9.40
2019-05-10T00:03:40.837Z,9.40
2019-05-10T00:06:29.508Z,9.40
2019-05-10T00:09:00.017Z,9.30
2019-05-10T00:11:50.229Z,9.30
2019-05-10T00:14:39.267Z,9.30
2019-05-10T00:17:16.176Z,9.30
2019-05-10T00:19:48.666Z,9.20
2019-05-10T00:22:20.501Z,9.20
2019-05-10T00:25:03.337Z,9.20
2019-05-10T00:27:25.504Z,9.20
2019-05-10T00:29:59.143Z,9.20
2019-05-10T00:32:31.751Z,9.20
2019-05-10T00:35:04.263Z,9.20
2019-05-10T00:37:35.989Z,9.20
2019-05-10T00:40:09.203Z,9.10
2019-05-10T00:42:41.099Z,9.10
2019-05-10T00:45:12.763Z,9.10
2019-05-10T00:47:44.048Z,9.10
2019-05-10T00:50:15.290Z,9.00
2019-05-10T00:52:46.870Z,8.90
2019-05-10T00:55:19.596Z,8.90
2019-05-10T00:57:53.326Z,8.90
2019-05-10T01:00:24.843Z,8.90
2019-05-10T01:02:57.173Z,8.80
2019-05-10T01:05:28.562Z,8.80
2019-05-10T01:08:01.279Z,8.70
2019-05-10T01:10:33.347Z,8.70
2019-05-10T01:13:05.227Z,8.60
2019-05-10T01:15:36.996Z,8.70
2019-05-10T01:18:08.469Z,8.70
2019-05-10T01:20:40.194Z,8.80
2019-05-10T01:23:12.130Z,8.70
2019-05-10T01:25:44.671Z,8.70
2019-05-10T01:28:18.205Z,8.60
2019-05-10T01:30:50.206Z,8.50
2019-05-10T01:33:21.868Z,8.50
2019-05-10T01:35:53.628Z,8.60
2019-05-10T01:38:26.429Z,8.50
2019-05-10T01:40:58.430Z,8.50
2019-05-10T01:43:29.726Z,8.50
2019-05-10T01:46:01.191Z,8.50
2019-05-10T01:48:32.868Z,8.50
2019-05-10T01:51:04.460Z,8.50
2019-05-10T01:53:36.018Z,8.60
2019-05-10T01:56:07.776Z,8.60
2019-05-10T01:58:39.027Z,8.60
2019-05-10T02:01:10.324Z,8.60
2019-05-10T02:03:42.278Z,8.60
2019-05-10T02:06:14.914Z,8.50
2019-05-10T02:08:46.738Z,8.50
2019-05-10T02:11:20.237Z,8.60
2019-05-10T02:13:52.209Z,8.50
2019-05-10T02:16:24.711Z,8.40
2019-05-10T02:18:56.515Z,8.40
2019-05-10T02:21:29.678Z,8.40
2019-05-10T02:24:00.909Z,8.40
2019-05-10T02:26:33.235Z,8.40
2019-05-10T02:29:04.734Z,8.40
2019-05-10T02:31:36.143Z,8.40
2019-05-10T02:34:07.515Z,8.30
2019-05-10T02:36:40.043Z,8.20
2019-05-10T02:39:11.959Z,8.20
2019-05-10T02:41:43.510Z,8.20
2019-05-10T02:44:14.992Z,8.20
2019-05-10T02:46:46.991Z,8.10
2019-05-10T02:49:19.117Z,8.10
2019-05-10T02:51:51.181Z,8.10
2019-05-10T02:54:22.974Z,7.90
2019-05-10T02:56:56.338Z,7.90
2019-05-10T02:59:28.748Z,7.80
2019-05-10T03:02:01.714Z,7.90
2019-05-10T03:04:36.484Z,7.90
2019-05-10T03:07:09.145Z,8.00
2019-05-10T03:09:41.312Z,7.80
2019-05-10T03:12:31.518Z,7.90
2019-05-10T03:15:04.534Z,7.90
2019-05-10T03:17:37.500Z,7.70
2019-05-10T03:20:09.432Z,7.60
2019-05-10T03:22:43.830Z,7.70
2019-05-10T03:25:16.154Z,7.70
2019-05-10T03:27:48.237Z,7.80
2019-05-10T03:30:19.759Z,7.90
2019-05-10T03:32:51.252Z,7.90
2019-05-10T03:35:23.056Z,7.90
2019-05-10T03:37:54.926Z,8.00
2019-05-10T03:40:26.923Z,8.10
2019-05-10T03:42:58.228Z,8.00
2019-05-10T03:45:29.495Z,7.90
2019-05-10T03:48:00.990Z,8.00
2019-05-10T03:50:32.374Z,7.80
2019-05-10T03:53:04.799Z,7.90
2019-05-10T03:55:36.599Z,8.00
2019-05-10T03:58:08.770Z,8.10
2019-05-10T04:00:40.789Z,8.10
2019-05-10T04:03:12.827Z,8.20
2019-05-10T04:05:45.003Z,8.20
2019-05-10T04:08:16.553Z,8.10
2019-05-10T04:10:49.563Z,8.00
2019-05-10T04:13:21.708Z,7.90
2019-05-10T04:15:56.423Z,7.90
2019-05-10T04:18:27.912Z,7.80
2019-05-10T04:20:59.240Z,7.80
2019-05-10T04:23:30.830Z,7.90
2019-05-10T04:26:02.979Z,7.90
2019-05-10T04:28:34.440Z,8.00
2019-05-10T04:31:06.452Z,8.00
2019-05-10T04:33:38.431Z,8.00
2019-05-10T04:36:12.539Z,8.10
2019-05-10T04:38:43.076Z,8.20
2019-05-10T04:41:16.233Z,8.40
2019-05-10T04:43:48.594Z,8.50
2019-05-10T04:46:20.646Z,8.50
2019-05-10T04:48:53.393Z,8.60
2019-05-10T04:51:25.908Z,8.70
2019-05-10T04:53:58.160Z,8.90
2019-05-10T04:56:31.053Z,9.00
2019-05-10T04:59:03.376Z,9.00
2019-05-10T05:01:35.143Z,9.00
2019-05-10T05:04:06.423Z,9.10
2019-05-10T05:06:38.859Z,9.20
2019-05-10T05:09:12.012Z,9.20
2019-05-10T05:11:45.712Z,9.40
2019-05-10T05:14:17.955Z,9.50
2019-05-10T05:16:49.846Z,9.70
2019-05-10T05:19:21.738Z,9.70
2019-05-10T05:21:53.615Z,9.70
2019-05-10T05:24:25.619Z,9.90
2019-05-10T05:26:57.782Z,10.00
2019-05-10T05:29:29.481Z,10.20
2019-05-10T05:32:03.590Z,10.30
2019-05-10T05:34:36.380Z,10.40
2019-05-10T05:37:08.642Z,10.50
2019-05-10T05:39:40.119Z,10.70
2019-05-10T05:42:12.135Z,10.90
2019-05-10T05:44:44.391Z,11.00
2019-05-10T05:47:16.316Z,11.20
2019-05-10T05:49:48.669Z,11.40
2019-05-10T05:52:19.890Z,11.50
2019-05-10T05:54:52.879Z,11.60
2019-05-10T05:57:27.466Z,11.70
2019-05-10T06:00:04.046Z,11.80
2019-05-10T06:02:33.231Z,11.90
2019-05-10T06:05:34.302Z,11.90
2019-05-10T06:07:56.199Z,12.10
2019-05-10T06:10:27.920Z,12.20
2019-05-10T06:12:59.638Z,12.50
2019-05-10T06:15:31.927Z,12.70
2019-05-10T06:18:09.374Z,12.70
2019-05-10T06:20:38.135Z,12.90
2019-05-10T06:23:11.111Z,13.20
2019-05-10T06:25:44.065Z,13.70
2019-05-10T06:28:26.247Z,14.50
2019-05-10T06:30:50.013Z,15.30
2019-05-10T06:33:22.392Z,16.40
2019-05-10T06:35:54.320Z,17.60
2019-05-10T06:38:25.399Z,18.30
2019-05-10T06:40:56.794Z,18.60
2019-05-10T06:43:28.361Z,18.30
2019-05-10T06:45:59.962Z,18.10
2019-05-10T06:48:33.615Z,18.00
2019-05-10T06:51:09.346Z,17.90
2019-05-10T06:53:42.310Z,17.50
2019-05-10T06:56:12.715Z,17.30
2019-05-10T06:58:44.075Z,17.30
2019-05-10T07:01:15.551Z,17.30
2019-05-10T07:03:47.706Z,17.40
2019-05-10T07:06:19.219Z,17.30
2019-05-10T07:08:57.638Z,17.30
2019-05-10T07:11:25.241Z,17.40
2019-05-10T07:13:56.242Z,17.70
2019-05-10T07:16:27.966Z,18.10
2019-05-10T07:19:00.612Z,18.40
2019-05-10T07:21:32.931Z,18.30
2019-05-10T07:24:05.558Z,18.20
2019-05-10T07:26:36.619Z,18.30
2019-05-10T07:29:08.413Z,18.00
2019-05-10T07:31:39.922Z,17.70
2019-05-10T07:34:15.771Z,17.90
2019-05-10T07:36:42.913Z,17.80
2019-05-10T07:39:13.711Z,17.90
2019-05-10T07:41:45.058Z,17.90
2019-05-10T07:44:16.477Z,17.90
2019-05-10T07:46:54.302Z,17.80
2019-05-10T07:49:23.837Z,17.80
2019-05-10T07:51:54.048Z,17.50
2019-05-10T07:54:25.470Z,17.50
2019-05-10T07:56:56.956Z,17.40
2019-05-10T07:59:33.903Z,17.20
2019-05-10T08:02:05.720Z,17.00
2019-05-10T08:04:38.284Z,16.90
2019-05-10T08:07:10.479Z,17.10
2019-05-10T08:09:45.029Z,16.90
2019-05-10T08:12:15.214Z,17.10
2019-05-10T08:14:50.170Z,17.30
2019-05-10T08:17:19.724Z,17.50
2019-05-10T08:19:54.902Z,17.60
2019-05-10T08:22:26.497Z,17.80
2019-05-10T08:24:58.661Z,17.90
2019-05-10T08:27:32.416Z,17.70
2019-05-10T08:30:19.974Z,17.50
2019-05-10T08:32:38.448Z,17.50
2019-05-10T08:35:16.346Z,17.50
2019-05-10T08:37:43.538Z,17.50
2019-05-10T08:40:19.765Z,17.70
2019-05-10T08:42:54.396Z,17.50
2019-05-10T08:45:23.514Z,17.60
2019-05-10T08:48:00.847Z,17.40
2019-05-10T08:50:44.245Z,17.50
2019-05-10T08:53:02.312Z,17.60
2019-05-10T08:55:33.684Z,17.70
2019-05-10T09:01:12.200Z,17.60
2019-05-10T09:03:28.822Z,17.40
2019-05-10T09:06:05.258Z,17.50
2019-05-10T09:08:34.659Z,17.20
2019-05-10T09:11:07.122Z,17.20
2019-05-10T09:13:42.507Z,16.90
2019-05-10T09:16:13.642Z,16.50
2019-05-10T09:18:50.264Z,16.20
2019-05-10T09:21:19.226Z,16.30
2019-05-10T09:24:01.141Z,16.20
2019-05-10T09:26:23.824Z,16.20
2019-05-10T09:28:57.536Z,16.20
2019-05-10T09:31:28.788Z,16.10
2019-05-10T09:34:02.466Z,15.90
2019-05-10T09:36:36.228Z,15.90
2019-05-10T09:39:09.238Z,15.90
2019-05-10T09:41:42.162Z,15.70
2019-05-10T09:44:13.858Z,15.60
2019-05-10T09:46:45.104Z,15.70
2019-05-10T09:49:18.580Z,15.70
2019-05-10T09:51:52.752Z,15.80
2019-05-10T09:54:29.351Z,16.10
2019-05-10T09:56:57.880Z,16.40
2019-05-10T09:59:29.161Z,16.50
2019-05-10T10:02:05.084Z,16.80
2019-05-10T10:04:37.192Z,16.80
2019-05-10T10:07:09.334Z,16.90
2019-05-10T10:09:44.778Z,17.30
2019-05-10T10:12:17.360Z,17.50
2019-05-10T10:14:48.178Z,17.70
2019-05-10T10:17:20.690Z,17.70
2019-05-10T10:19:52.269Z,17.40
2019-05-10T10:22:24.533Z,17.40
2019-05-10T10:25:03.347Z,17.10
2019-05-10T10:27:39.344Z,17.20
2019-05-10T10:30:14.981Z,17.30
2019-05-10T10:32:44.616Z,17.30
2019-05-10T10:35:26.142Z,17.50
2019-05-10T10:37:57.538Z,17.60
2019-05-10T10:40:27.965Z,17.90
2019-05-10T10:42:59.559Z,18.10
2019-05-10T10:45:31.689Z,18.10
2019-05-10T10:48:08.455Z,18.10
2019-05-10T10:50:35.703Z,18.10
2019-05-10T10:53:08.186Z,18.30
2019-05-10T10:55:40.349Z,18.70
2019-05-10T10:58:11.638Z,19.10
2019-05-10T11:00:43.631Z,19.30
2019-05-10T11:03:15.796Z,19.20
2019-05-10T11:05:48.580Z,19.10
2019-05-10T11:08:19.762Z,18.80
2019-05-10T11:10:50.839Z,18.90
2019-05-10T11:13:40.707Z,18.90
2019-05-10T11:15:58.896Z,18.60
2019-05-10T11:18:31.736Z,18.90
2019-05-10T11:21:02.762Z,19.80
2019-05-10T11:23:39.122Z,20.60
2019-05-10T11:26:08.097Z,20.50
2019-05-10T11:28:43.904Z,19.70
2019-05-10T11:31:12.717Z,19.00
2019-05-10T11:33:47.471Z,18.90
2019-05-10T11:36:17.709Z,19.00
2019-05-10T11:38:56.496Z,19.00
2019-05-10T11:41:24.607Z,19.10
2019-05-10T11:43:57.960Z,19.40
2019-05-10T11:46:31.033Z,19.90
2019-05-10T11:49:03.505Z,20.50
2019-05-10T11:51:35.810Z,20.70
2019-05-10T11:54:07.586Z,20.90
2019-05-10T11:56:41.031Z,21.10
2019-05-10T11:59:16.349Z,21.30
2019-05-10T12:01:54.792Z,21.80
2019-05-10T12:04:23.920Z,22.20
2019-05-10T12:06:53.497Z,23.00
2019-05-10T12:09:25.842Z,23.00
2019-05-10T12:11:57.240Z,23.60
2019-05-10T12:14:28.542Z,24.30
2019-05-10T12:17:06.142Z,25.10
2019-05-10T12:19:44.557Z,25.20
2019-05-10T12:22:08.373Z,25.20
2019-05-10T12:24:53.797Z,24.70
2019-05-10T12:27:24.542Z,24.20
2019-05-10T12:29:51.857Z,23.10
2019-05-10T12:32:21.322Z,23.60
2019-05-10T12:34:56.454Z,24.20
2019-05-10T12:37:26.345Z,25.00
2019-05-10T12:40:06.250Z,25.60
2019-05-10T12:42:31.894Z,26.50
2019-05-10T12:45:03.625Z,27.50
2019-05-10T12:47:35.064Z,27.60
2019-05-10T12:50:06.612Z,27.70
2019-05-10T12:52:38.149Z,27.20
2019-05-10T12:55:12.283Z,25.50
2019-05-10T12:57:44.365Z,24.30
2019-05-10T13:00:16.085Z,23.40
2019-05-10T13:02:53.341Z,23.00
2019-05-10T13:05:31.273Z,23.00
2019-05-10T13:07:54.621Z,23.80
2019-05-10T13:10:25.830Z,26.30
2019-05-10T13:12:57.493Z,28.60
2019-05-10T13:15:30.989Z,28.60
2019-05-10T13:18:02.121Z,26.50
2019-05-10T13:20:36.476Z,24.80
2019-05-10T13:23:10.067Z,23.50
2019-05-10T13:25:41.631Z,23.00
2019-05-10T13:28:12.806Z,22.30
2019-05-10T13:30:44.604Z,21.90
2019-05-10T13:33:28.382Z,21.10
2019-05-10T13:35:50.851Z,20.60
2019-05-10T13:38:23.552Z,20.30
2019-05-10T13:40:55.159Z,20.30
2019-05-10T13:43:28.202Z,20.00
2019-05-10T13:45:58.714Z,19.30
2019-05-10T13:48:30.685Z,18.90
2019-05-10T13:51:01.516Z,18.70
2019-05-10T13:53:33.510Z,18.70
2019-05-10T13:56:05.879Z,18.60
2019-05-10T13:58:37.300Z,18.40
2019-05-10T14:01:13.240Z,18.00
2019-05-10T14:03:44.300Z,17.80
2019-05-10T14:06:14.311Z,17.90
2019-05-10T14:08:48.293Z,17.70
2019-05-10T14:11:20.095Z,17.90
2019-05-10T14:13:51.087Z,18.00
2019-05-10T14:16:22.741Z,18.10
2019-05-10T14:18:54.499Z,18.20
2019-05-10T14:21:25.954Z,18.40
2019-05-10T14:23:57.891Z,19.00
2019-05-10T14:26:29.442Z,19.90
2019-05-10T14:29:01.409Z,20.40
2019-05-10T14:31:32.939Z,20.80
2019-05-10T14:34:19.271Z,21.20
2019-05-10T14:36:40.749Z,21.40
2019-05-10T14:39:11.210Z,21.30
2019-05-10T14:41:45.189Z,21.30
2019-05-10T14:44:16.149Z,21.10
2019-05-10T14:46:48.219Z,21.50
2019-05-10T14:49:20.526Z,21.90
2019-05-10T14:51:58.987Z,22.10
2019-05-10T14:54:25.246Z,22.40
2019-05-10T14:56:57.616Z,23.40
2019-05-10T14:59:29.384Z,23.30
2019-05-10T15:02:01.163Z,22.50
2019-05-10T15:04:48.142Z,22.20
2019-05-10T15:07:08.731Z,21.80
2019-05-10T15:09:39.401Z,21.10
2019-05-10T15:12:16.311Z,20.30
2019-05-10T15:14:47.908Z,20.10
2019-05-10T15:17:20.300Z,19.60
2019-05-10T15:19:57.314Z,19.60
2019-05-10T15:22:25.664Z,19.40
2019-05-10T15:24:56.822Z,19.20
2019-05-10T15:27:29.610Z,19.00
2019-05-10T15:30:05.358Z,18.90
2019-05-10T15:32:33.725Z,18.80
2019-05-10T15:35:07.917Z,18.80
2019-05-10T15:37:43.969Z,18.80
2019-05-10T15:40:11.033Z,19.00
2019-05-10T15:42:42.568Z,18.90
2019-05-10T15:45:15.093Z,19.00
2019-05-10T15:47:51.729Z,19.10
2019-05-10T15:50:22.491Z,19.20
2019-05-10T15:52:54.477Z,19.40
2019-05-10T15:55:28.405Z,19.50
2019-05-10T15:58:00.254Z,19.40
2019-05-10T16:00:38.956Z,19.20
2019-05-10T16:03:05.294Z,19.00
2019-05-10T16:05:43.478Z,18.60
2019-05-10T16:08:13.867Z,18.50
2019-05-10T16:10:45.599Z,18.50
2019-05-10T16:13:23.265Z,18.70
2019-05-10T16:15:51.561Z,18.60
2019-05-10T16:18:25.006Z,18.60
2019-05-10T16:20:56.651Z,18.40
2019-05-10T16:23:29.828Z,18.60
2019-05-10T16:26:01.307Z,18.60
2019-05-10T16:28:32.803Z,18.70
2019-05-10T16:31:05.325Z,18.80
2019-05-10T16:33:36.466Z,19.00
2019-05-10T16:36:08.810Z,18.80
2019-05-10T16:38:41.761Z,18.70
2019-05-10T16:41:13.123Z,18.70
2019-05-10T16:43:44.842Z,18.80
2019-05-10T16:46:16.801Z,18.80
2019-05-10T16:48:48.648Z,18.80
2019-05-10T16:51:20.047Z,18.70
2019-05-10T16:53:51.762Z,18.50
2019-05-10T16:56:22.808Z,18.40
2019-05-10T16:58:55.127Z,18.30
2019-05-10T17:01:27.790Z,18.50
2019-05-10T17:04:01.808Z,18.40
2019-05-10T17:06:35.372Z,18.50
2019-05-10T17:09:09.257Z,18.20
2019-05-10T17:11:41.497Z,18.40
2019-05-10T17:14:12.580Z,18.50
2019-05-10T17:16:44.501Z,18.50
2019-05-10T17:19:15.321Z,18.40
2019-05-10T17:21:47.999Z,18.20
2019-05-10T17:24:23.853Z,18.00
2019-05-10T17:26:52.341Z,17.80
2019-05-10T17:29:23.960Z,17.80
2019-05-10T17:31:55.657Z,17.80
2019-05-10T17:34:29.571Z,17.80
2019-05-10T17:36:59.907Z,17.50
2019-05-10T17:39:34.151Z,17.40
2019-05-10T17:42:05.451Z,17.40
2019-05-10T17:44:37.759Z,17.40
2019-05-10T17:47:09.251Z,17.30
2019-05-10T17:49:41.287Z,17.30
2019-05-10T17:52:12.687Z,17.30
2019-05-10T17:54:44.110Z,17.20
2019-05-10T17:57:16.882Z,17.20
2019-05-10T17:59:53.345Z,17.40
2019-05-10T18:02:24.639Z,17.20
2019-05-10T18:04:59.792Z,17.30
2019-05-10T18:07:29.584Z,17.30
2019-05-10T18:10:03.701Z,17.30
2019-05-10T18:12:35.300Z,17.40
2019-05-10T18:15:10.702Z,17.30
2019-05-10T18:17:41.781Z,17.20
2019-05-10T18:20:14.176Z,17.10
2019-05-10T18:22:46.134Z,16.90
2019-05-10T18:25:20.215Z,17.00
2019-05-10T18:27:50.606Z,17.00
2019-05-10T18:30:22.691Z,16.90
2019-05-10T18:32:54.577Z,16.80
2019-05-10T18:35:26.280Z,16.80
2019-05-10T18:37:59.684Z,16.50
2019-05-10T18:40:32.165Z,16.30
2019-05-10T18:43:05.924Z,16.10
2019-05-10T18:45:38.816Z,15.90
2019-05-10T18:48:09.995Z,15.70
2019-05-10T18:50:45.438Z,15.50
2019-05-10T18:53:14.880Z,15.40
2019-05-10T18:55:46.342Z,15.20
2019-05-10T18:58:23.434Z,14.90
2019-05-10T19:00:56.079Z,14.90
2019-05-10T19:03:27.976Z,14.80
2019-05-10T19:05:58.199Z,14.70
2019-05-10T19:08:29.773Z,14.70
2019-05-10T19:11:01.494Z,14.80
2019-05-10T19:13:34.604Z,15.00
2019-05-10T19:16:06.768Z,15.10
2019-05-10T19:18:38.279Z,15.10
2019-05-10T19:21:11.201Z,15.10
2019-05-10T19:23:46.083Z,14.90
2019-05-10T19:26:17.774Z,15.00
2019-05-10T19:28:49.233Z,14.90
2019-05-10T19:31:20.730Z,14.90
2019-05-10T19:33:51.920Z,14.80
2019-05-10T19:36:23.033Z,14.70
2019-05-10T19:38:55.399Z,14.70
2019-05-10T19:41:27.250Z,14.50
2019-05-10T19:44:02.369Z,14.60
2019-05-10T19:46:39.406Z,14.60
2019-05-10T19:49:07.688Z,14.60
2019-05-10T19:51:42.175Z,14.50
2019-05-10T19:54:13.770Z,14.50
2019-05-10T19:56:44.879Z,14.40
2019-05-10T19:59:16.707Z,14.40
2019-05-10T20:01:48.305Z,14.40
2019-05-10T20:04:19.923Z,14.40
2019-05-10T20:06:52.983Z,14.40
2019-05-10T20:09:24.325Z,14.40
2019-05-10T20:11:56.521Z,14.40
2019-05-10T20:14:29.660Z,14.50
2019-05-10T20:17:00.655Z,14.60
2019-05-10T20:19:31.260Z,14.60
2019-05-10T20:22:02.518Z,14.60
2019-05-10T20:24:34.069Z,14.50
2019-05-10T20:27:06.941Z,14.40
2019-05-10T20:29:37.919Z,14.40
2019-05-10T20:32:09.147Z,14.30
2019-05-10T20:34:41.156Z,14.20
2019-05-10T20:37:15.128Z,14.20
2019-05-10T20:39:47.279Z,14.10
2019-05-10T20:42:25.223Z,14.10
2019-05-10T20:45:07.555Z,14.00
2019-05-10T20:47:33.479Z,13.90
2019-05-10T20:50:05.154Z,13.90
2019-05-10T20:52:38.149Z,13.90
2019-05-10T20:55:10.923Z,13.80
2019-05-10T20:57:42.861Z,13.70
2019-05-10T21:00:15.620Z,13.70
2019-05-10T21:02:46.772Z,13.60
2019-05-10T21:05:19.319Z,13.50
2019-05-10T21:07:50.633Z,13.40
2019-05-10T21:10:22.699Z,13.40
2019-05-10T21:12:54.900Z,13.40
2019-05-10T21:15:26.482Z,13.30
2019-05-10T21:17:58.127Z,13.30
2019-05-10T21:20:30.971Z,13.30
2019-05-10T21:23:02.809Z,13.20
2019-05-10T21:25:34.501Z,13.20
2019-05-10T21:28:05.640Z,13.10
2019-05-10T21:30:36.935Z,12.90
2019-05-10T21:33:08.900Z,12.90
2019-05-10T21:35:40.370Z,12.80
2019-05-10T21:38:11.539Z,12.80
2019-05-10T21:40:43.296Z,12.80
2019-05-10T21:43:14.968Z,12.80
2019-05-10T21:45:47.490Z,12.60
2019-05-10T21:48:19.360Z,12.50
2019-05-10T21:50:50.901Z,12.50
2019-05-10T21:53:22.611Z,12.40
2019-05-10T21:55:54.055Z,12.20
2019-05-10T21:58:25.709Z,12.20
2019-05-10T22:00:57.928Z,12.10
2019-05-10T22:03:30.065Z,12.10
2019-05-10T22:06:02.579Z,12.10
2019-05-10T22:08:48.371Z,11.90
2019-05-10T22:11:08.344Z,11.90
2019-05-10T22:13:41.764Z,11.80
2019-05-10T22:16:14.017Z,11.80
2019-05-10T22:18:45.608Z,11.90
2019-05-10T22:21:17.865Z,11.80
2019-05-10T22:23:50.229Z,11.70
2019-05-10T22:26:21.583Z,11.80
2019-05-10T22:28:53.000Z,11.70
2019-05-10T22:31:24.821Z,11.80
2019-05-10T22:33:56.891Z,11.90
2019-05-10T22:36:28.768Z,11.90
2019-05-10T22:39:07.257Z,11.80
2019-05-10T22:41:33.846Z,11.80
2019-05-10T22:44:05.811Z,11.70
2019-05-10T22:46:37.581Z,11.60
2019-05-10T22:49:10.734Z,11.70
2019-05-10T22:51:42.581Z,11.60
2019-05-10T22:54:14.329Z,11.70
2019-05-10T22:56:47.440Z,11.60
2019-05-10T22:59:19.487Z,11.50
2019-05-10T23:01:51.399Z,11.50
2019-05-10T23:04:22.396Z,11.40
2019-05-10T23:06:54.517Z,11.40
2019-05-10T23:09:26.498Z,11.50
2019-05-10T23:11:58.480Z,11.50
2019-05-10T23:14:30.797Z,11.40
2019-05-10T23:17:02.336Z,11.40
2019-05-10T23:19:34.604Z,11.30
2019-05-10T23:22:07.780Z,11.40
2019-05-10T23:24:40.904Z,11.30
2019-05-10T23:27:13.987Z,11.30
2019-05-10T23:29:46.119Z,11.10
2019-05-10T23:32:18.066Z,11.20
2019-05-10T23:34:49.773Z,11.10
2019-05-10T23:37:21.209Z,11.10
2019-05-10T23:39:52.640Z,11.10
2019-05-10T23:42:24.086Z,11.10
2019-05-10T23:44:56.042Z,11.00
2019-05-10T23:47:27.524Z,10.80
2019-05-10T23:49:59.385Z,10.70
2019-05-10T23:52:31.237Z,10.70
2019-05-10T23:55:02.214Z,10.50
2019-05-10T23:57:34.167Z,10.50
